Time;durP1;ratioP1;P1;durP2;ratioP2;P2;SDS_P1;SDS_P2;PMS_P1;PMS_P2;Temp;Humidity;BMP_temperature;BMP_pressure;BME280_temperature;BME280_humidity;BME280_pressure;Samples;Min_cycle;Max_cycle;Signal;HPM_P1;HPM_P2
2021/11/12 00:13:32;;;;;;;48.30;17.23;;;;;;;5.00;70.59;100893.03;4985830;28;20037;-68
2021/11/12 00:16:02;;;;;;;46.00;18.13;;;;;;;5.00;70.79;100895.66;4997058;28;20034;-68
2021/11/12 00:18:30;;;;;;;39.97;19.90;;;;;;;5.03;70.36;100892.84;4988983;28;20070;-72
2021/11/12 00:20:59;;;;;;;46.27;17.60;;;;;;;4.93;71.03;100894.38;4986867;28;20042;-68
2021/11/12 00:23:26;;;;;;;45.17;19.13;;;;;;;4.97;70.90;100894.09;4989527;28;20216;-68
2021/11/12 00:25:52;;;;;;;47.47;18.20;;;;;;;5.02;70.56;100891.16;4984981;28;20119;-68
2021/11/12 00:28:21;;;;;;;54.67;19.37;;;;;;;5.00;69.99;100891.25;4990215;28;20417;-68
2021/11/12 00:31:06;;;;;;;47.80;17.60;;;;;;;5.03;69.17;100892.84;4985307;28;20031;-72
2021/11/12 00:38:27;;;;;;;43.50;19.33;;;;;;;4.82;70.12;100881.94;4985087;28;20320;-68
2021/11/12 00:43:32;;;;;;;46.53;18.87;;;;;;;4.89;69.77;100879.78;4986294;28;20239;-72
2021/11/12 00:46:21;;;;;;;35.00;16.63;;;;;;;4.89;69.83;100885.84;4989775;28;20045;-68
2021/11/12 00:48:56;;;;;;;35.60;18.40;;;;;;;4.80;70.44;100875.94;4988580;28;20045;-68
2021/11/12 00:51:25;;;;;;;43.23;19.53;;;;;;;4.89;70.62;100872.75;4988713;28;20245;-68
2021/11/12 00:53:53;;;;;;;53.87;24.57;;;;;;;4.91;70.76;100870.00;4983525;28;20045;-68
2021/11/12 00:56:22;;;;;;;43.27;21.23;;;;;;;5.02;70.24;100868.38;4983999;28;20079;-69
2021/11/12 00:58:48;;;;;;;49.60;23.13;;;;;;;4.88;71.05;100871.06;4984383;28;20098;-73
2021/11/12 01:01:14;;;;;;;58.90;25.07;;;;;;;4.79;71.93;100861.16;4988203;28;20097;-72
2021/11/12 01:03:39;;;;;;;55.83;26.27;;;;;;;4.84;72.17;100859.06;4984923;28;20061;-72
2021/11/12 01:06:05;;;;;;;56.47;25.10;;;;;;;4.92;71.68;100851.53;4984016;28;20041;-72
2021/11/12 01:08:31;;;;;;;61.30;26.83;;;;;;;4.87;71.63;100856.25;4988102;28;20086;-68
2021/11/12 01:10:57;;;;;;;62.63;27.00;;;;;;;4.85;71.52;100847.63;4984154;28;20042;-68
2021/11/12 01:13:24;;;;;;;57.83;25.67;;;;;;;4.84;71.83;100847.72;4992368;28;20122;-72
2021/11/12 01:15:50;;;;;;;59.43;28.00;;;;;;;4.87;71.93;100847.53;4985930;28;20050;-69
2021/11/12 01:18:15;;;;;;;63.93;28.87;;;;;;;4.89;71.87;100840.41;4984412;28;20069;-69
2021/11/12 01:20:41;;;;;;;68.73;28.47;;;;;;;4.89;71.33;100843.88;4985442;28;20125;-72
2021/11/12 01:23:07;;;;;;;68.57;28.30;;;;;;;4.65;72.61;100840.19;4983704;28;20055;-73
2021/11/12 01:25:32;;;;;;;65.53;26.93;;;;;;;4.63;72.17;100823.72;4989952;28;20386;-72
2021/11/12 01:27:58;;;;;;;61.97;24.63;;;;;;;4.73;71.88;100833.50;4987421;28;20042;-68
2021/11/12 01:30:24;;;;;;;65.03;26.47;;;;;;;4.76;71.47;100832.47;4985087;28;20054;-71
2021/11/12 01:32:49;;;;;;;65.10;25.33;;;;;;;4.69;71.72;100824.16;4999107;28;20152;-73
2021/11/12 01:35:18;;;;;;;55.03;22.70;;;;;;;4.68;72.03;100821.63;4985356;28;20049;-72
2021/11/12 01:37:45;;;;;;;53.00;22.67;;;;;;;4.51;72.59;100822.72;4983284;28;20240;-66
2021/11/12 01:40:19;;;;;;;54.53;21.77;;;;;;;4.54;72.68;100812.03;4982162;28;20034;-69
2021/11/12 01:43:12;;;;;;;50.10;21.95;;;;;;;4.54;72.62;100825.13;5002663;28;20260;-69
2021/11/12 01:45:48;;;;;;;42.57;20.50;;;;;;;4.62;72.10;100820.25;4983640;28;20034;-72
2021/11/12 01:53:49;;;;;;;46.92;20.92;;;;;;;4.64;71.77;100818.38;4985478;28;20085;-70
2021/11/12 02:01:22;;;;;;;37.28;15.07;;;;;;;4.54;72.83;100808.56;4981238;28;20288;-68
2021/11/12 02:03:49;;;;;;;47.17;20.57;;;;;;;4.59;72.31;100809.94;4990683;28;20239;-68
2021/11/12 02:06:18;;;;;;;49.63;21.13;;;;;;;4.50;72.70;100802.66;4984251;28;20303;-70
2021/11/12 02:08:45;;;;;;;56.60;23.30;;;;;;;4.66;72.14;100813.03;4982814;28;20475;-72
2021/11/12 02:11:11;;;;;;;54.20;23.47;;;;;;;4.59;72.00;100798.63;4984999;28;20042;-68
2021/11/12 02:13:37;;;;;;;53.50;22.87;;;;;;;4.45;72.99;100809.97;4981969;28;20077;-68
2021/11/12 02:16:05;;;;;;;61.93;23.57;;;;;;;4.68;71.85;100809.34;4982230;28;20058;-68
2021/11/12 02:18:35;;;;;;;61.13;25.00;;;;;;;4.63;71.97;100818.47;4987759;28;20374;-72
2021/11/12 02:21:12;;;;;;;60.13;24.07;;;;;;;4.47;72.79;100808.94;4984642;28;20038;-72
2021/11/12 02:24:13;;;;;;;54.23;24.37;;;;;;;4.46;72.59;100803.78;4984841;28;20058;-69
2021/11/12 02:26:39;;;;;;;56.85;26.15;;;;;;;4.36;73.21;100805.31;5000147;28;20105;-69
2021/11/12 02:29:07;;;;;;;60.97;24.23;;;;;;;4.32;73.32;100799.44;4999867;28;20030;-72
2021/11/12 02:31:33;;;;;;;55.77;24.33;;;;;;;4.48;72.53;100794.06;4984962;28;20037;-69
2021/11/12 02:34:11;;;;;;;66.00;26.60;;;;;;;4.45;73.00;100804.72;4983169;28;20393;-69
2021/11/12 02:36:39;;;;;;;57.60;25.20;;;;;;;4.51;72.73;100800.88;4982664;28;20038;-68
2021/11/12 02:39:07;;;;;;;49.07;23.43;;;;;;;4.51;72.74;100804.34;4982789;28;20059;-72
2021/11/12 02:41:33;;;;;;;54.93;23.03;;;;;;;4.38;73.22;100796.41;4983979;28;20270;-72
2021/11/12 02:44:00;;;;;;;46.90;21.70;;;;;;;4.44;72.78;100797.81;4983424;28;20049;-72
2021/11/12 02:46:26;;;;;;;40.03;19.37;;;;;;;4.25;73.75;100784.19;4981442;28;20034;-73
2021/11/12 02:48:53;;;;;;;40.90;19.80;;;;;;;4.55;72.07;100784.84;4981274;28;20039;-73
2021/11/12 02:51:26;;;;;;;49.00;20.00;;;;;;;4.43;72.80;100786.47;4983561;28;20035;-72
2021/11/12 02:53:52;;;;;;;40.20;20.10;;;;;;;4.28;73.49;100782.19;4981886;28;20034;-72
2021/11/12 02:56:28;;;;;;;47.30;20.43;;;;;;;4.32;72.85;100775.00;4969651;28;20109;-72
2021/11/12 02:58:59;;;;;;;46.77;20.87;;;;;;;4.39;72.80;100776.28;4987345;28;20043;-68
2021/11/12 03:01:25;;;;;;;49.67;22.17;;;;;;;4.42;72.32;100782.16;4986590;28;20030;-69
2021/11/12 03:03:53;;;;;;;55.00;23.50;;;;;;;4.37;72.58;100775.53;4988942;28;20089;-69
2021/11/12 03:06:19;;;;;;;54.67;23.80;;;;;;;4.43;72.04;100773.38;4990151;28;20037;-68
2021/11/12 03:08:45;;;;;;;56.07;25.80;;;;;;;4.30;72.48;100763.75;4990212;28;20043;-70
2021/11/12 03:11:10;;;;;;;54.40;25.30;;;;;;;4.48;71.28;100771.28;4987517;28;20128;-68
2021/11/12 03:13:36;;;;;;;59.07;26.27;;;;;;;4.32;72.45;100767.97;4986381;28;20038;-69
2021/11/12 03:16:02;;;;;;;60.23;28.23;;;;;;;4.20;72.57;100770.50;5002296;28;20339;-68
2021/11/12 03:18:30;;;;;;;57.40;26.40;;;;;;;4.10;72.68;100762.34;5004355;28;20338;-72
2021/11/12 03:20:57;;;;;;;57.27;27.47;;;;;;;4.25;71.66;100763.19;4987859;28;20205;-67
2021/11/12 03:23:27;;;;;;;68.40;29.20;;;;;;;4.24;72.36;100761.53;4986230;28;20053;-66
2021/11/12 03:28:46;;;;;;;64.03;28.57;;;;;;;4.06;72.82;100756.47;4988129;28;20031;-66
2021/11/12 04:39:59;;;;;;;44.45;18.58;;;;;;;3.54;73.83;100722.16;4988949;28;20073;-67
2021/11/12 05:51:13;;;;;;;52.83;21.73;;;;;;;3.62;74.32;100725.16;4992079;28;20120;-71
2021/11/12 05:56:22;;;;;;;48.17;22.85;;;;;;;3.52;74.57;100729.28;5003378;28;20041;-68
2021/11/12 05:58:48;;;;;;;48.17;22.67;;;;;;;3.58;74.83;100723.66;5003233;28;20223;-69
2021/11/12 06:01:13;;;;;;;39.60;20.73;;;;;;;3.56;75.31;100729.94;5003275;28;20093;-73
2021/11/12 06:03:39;;;;;;;40.23;21.10;;;;;;;3.54;75.76;100732.63;5003021;28;20034;-72
2021/11/12 06:06:05;;;;;;;49.53;22.47;;;;;;;3.69;75.31;100731.69;5003187;28;20034;-71
2021/11/12 06:08:31;;;;;;;45.93;21.30;;;;;;;3.75;75.43;100731.31;5002666;28;20046;-72
2021/11/12 06:10:56;;;;;;;44.00;22.77;;;;;;;3.79;75.75;100732.81;5002810;28;20101;-69
2021/11/12 06:13:22;;;;;;;51.63;23.50;;;;;;;3.81;75.15;100735.34;5003229;28;20031;-72
2021/11/12 06:15:48;;;;;;;58.27;26.40;;;;;;;3.78;75.73;100728.50;5002851;28;20304;-72
2021/11/12 06:18:13;;;;;;;69.77;27.47;;;;;;;3.85;75.50;100729.81;5002054;28;20048;-69
2021/11/12 06:20:39;;;;;;;63.77;28.27;;;;;;;3.77;76.04;100718.13;5002033;28;20248;-72
2021/11/12 06:23:05;;;;;;;61.87;25.37;;;;;;;4.10;75.13;100723.88;5001866;28;20053;-70
2021/11/12 06:25:31;;;;;;;72.13;28.20;;;;;;;4.50;74.23;100726.59;5001638;28;20030;-69
2021/11/12 06:27:56;;;;;;;63.50;27.30;;;;;;;4.57;73.88;100727.03;5000457;28;20100;-71
2021/11/12 06:30:22;;;;;;;46.10;22.00;;;;;;;4.66;73.30;100714.16;4996594;28;20035;-73
2021/11/12 06:32:48;;;;;;;47.23;22.23;;;;;;;4.77;73.69;100721.34;4992163;28;20241;-69
2021/11/12 06:35:13;;;;;;;44.17;21.27;;;;;;;4.88;73.54;100715.38;4991445;28;20383;-72
2021/11/12 06:37:39;;;;;;;52.50;22.73;;;;;;;5.01;73.00;100703.94;4993892;28;20049;-72
2021/11/12 06:40:05;;;;;;;46.90;23.83;;;;;;;5.07;72.97;100718.44;4996343;28;20324;-68
2021/11/12 06:42:36;;;;;;;63.80;26.20;;;;;;;5.28;73.22;100719.66;4994975;28;20387;-68
2021/11/12 06:50:32;;;;;;;;;;;;;;;5.95;69.42;100711.53;4995783;28;20033;-69
2021/11/12 06:52:58;;;;;;;41.67;20.13;;;;;;;6.02;69.96;100712.78;5000480;28;19941;-69
2021/11/12 06:55:23;;;;;;;40.55;19.83;;;;;;;6.39;68.84;100705.72;5005249;28;20133;-72
2021/11/12 06:57:49;;;;;;;42.40;18.63;;;;;;;6.61;68.37;100715.50;5005543;28;20042;-68
2021/11/12 07:00:18;;;;;;;42.42;20.00;;;;;;;6.79;67.68;100711.53;5005250;28;20309;-72
2021/11/12 07:02:45;;;;;;;38.28;18.60;;;;;;;7.06;67.30;100705.97;5005344;28;20283;-70
2021/11/12 07:05:12;;;;;;;41.25;18.90;;;;;;;7.13;66.95;100701.91;5005142;28;20082;-69
2021/11/12 07:07:38;;;;;;;39.92;19.30;;;;;;;7.34;67.05;100700.31;5004640;28;20046;-67
2021/11/12 07:10:05;;;;;;;34.10;19.10;;;;;;;7.54;66.18;100697.94;5004920;28;20057;-67
2021/11/12 07:12:31;;;;;;;37.88;18.52;;;;;;;7.51;66.15;100692.91;5005386;28;20026;-70
2021/11/12 07:14:56;;;;;;;30.50;17.00;;;;;;;7.52;66.46;100684.88;5004590;28;20045;-67
2021/11/12 07:17:22;;;;;;;34.75;18.13;;;;;;;7.77;65.47;100686.41;5003904;28;20022;-66
2021/11/12 07:19:47;;;;;;;34.70;17.17;;;;;;;7.90;65.37;100687.13;5004914;28;20042;-69
2021/11/12 07:22:15;;;;;;;32.05;16.65;;;;;;;7.90;65.60;100678.38;5004767;28;20338;-71
2021/11/12 07:24:41;;;;;;;35.58;17.25;;;;;;;8.15;65.23;100679.88;5005156;28;20038;-70
2021/11/12 07:27:07;;;;;;;36.70;17.25;;;;;;;8.29;64.89;100680.44;5005025;28;20037;-67
2021/11/12 07:29:35;;;;;;;30.20;14.68;;;;;;;8.36;64.97;100678.22;5004370;28;20231;-67
2021/11/12 07:32:01;;;;;;;28.83;14.07;;;;;;;8.54;64.40;100676.69;5004829;28;20050;-70
2021/11/12 07:34:28;;;;;;;33.13;14.40;;;;;;;8.77;63.61;100674.78;5003434;28;20061;-67
2021/11/12 07:37:01;;;;;;;36.03;16.25;;;;;;;8.78;64.32;100665.91;5004367;28;20034;-67
2021/11/12 07:47:29;;;;;;;31.92;15.20;;;;;;;9.00;64.13;100661.47;4991122;28;20050;-67
2021/11/12 07:49:57;;;;;;;34.28;15.70;;;;;;;8.88;64.40;100663.31;5004360;28;20223;-67
2021/11/12 07:52:27;;;;;;;66.53;21.75;;;;;;;8.96;63.93;100666.16;5003982;28;20256;-68
2021/11/12 07:54:53;;;;;;;38.72;16.45;;;;;;;9.22;63.08;100661.31;5004233;28;20034;-67
2021/11/12 07:57:20;;;;;;;29.05;15.27;;;;;;;9.15;63.15;100663.63;5004412;28;20046;-70
2021/11/12 07:59:45;;;;;;;29.98;14.95;;;;;;;9.56;62.43;100657.47;5018916;28;20280;-69
2021/11/12 08:02:14;;;;;;;29.05;15.20;;;;;;;9.71;61.75;100652.66;5004450;28;20066;-70
2021/11/12 08:04:39;;;;;;;32.35;16.08;;;;;;;9.64;62.71;100640.94;5004062;28;20105;-70
2021/11/12 08:07:05;;;;;;;30.35;15.20;;;;;;;9.81;61.92;100655.31;5003630;28;20097;-70
2021/11/12 08:09:35;;;;;;;31.58;15.32;;;;;;;10.05;61.83;100655.78;5003669;28;20053;-67
2021/11/12 08:12:11;;;;;;;25.73;14.65;;;;;;;10.23;60.90;100646.25;5004063;28;20038;-70
2021/11/12 08:14:53;;;;;;;25.98;15.63;;;;;;;10.20;60.72;100657.09;5003594;28;20285;-71
2021/11/12 08:20:03;;;;;;;28.38;14.93;;;;;;;10.35;59.84;100649.59;5004003;28;20049;-67
2021/11/12 08:22:47;;;;;;;25.35;14.18;;;;;;;9.93;60.80;100651.59;5003438;28;20046;-70
2021/11/12 08:25:27;;;;;;;32.15;14.95;;;;;;;10.20;59.86;100656.28;5003887;28;20033;-70
2021/11/12 08:33:46;;;;;;;24.45;13.20;;;;;;;10.51;58.92;100643.78;4991465;28;20046;-66
2021/11/12 08:39:13;;;;;;;24.90;13.13;;;;;;;10.37;59.90;100644.16;4992485;28;20050;-70
2021/11/12 08:41:52;;;;;;;42.67;18.10;;;;;;;10.68;59.65;100640.41;5003767;28;20084;-70
2021/11/12 08:44:25;;;;;;;38.10;17.05;;;;;;;10.71;58.98;100640.13;5003124;28;20034;-72
2021/11/12 08:49:23;;;;;;;59.30;21.90;;;;;;;10.94;58.67;100645.13;5003207;28;20045;-68
2021/11/12 08:51:48;;;;;;;23.67;12.98;;;;;;;11.25;56.58;100635.97;5003258;28;20042;-67
2021/11/12 08:54:14;;;;;;;26.73;13.88;;;;;;;11.16;57.08;100636.84;5003294;28;20046;-67
2021/11/12 08:56:39;;;;;;;28.13;13.73;;;;;;;10.79;59.37;100631.47;5003652;28;20081;-72
2021/11/12 08:59:05;;;;;;;22.90;12.57;;;;;;;10.92;58.46;100637.31;5002265;28;20034;-67
2021/11/12 09:01:32;;;;;;;23.50;13.13;;;;;;;11.00;58.17;100626.00;5003103;28;20069;-72
2021/11/12 09:03:57;;;;;;;23.33;13.13;;;;;;;11.06;58.53;100625.44;5003010;28;20038;-69
2021/11/12 09:06:24;;;;;;;24.25;13.38;;;;;;;11.11;57.21;100628.47;5002449;28;20113;-75
2021/11/12 09:08:50;;;;;;;36.83;12.70;;;;;;;11.17;56.84;100620.78;5002932;28;20134;-72
2021/11/12 09:11:15;;;;;;;26.02;13.25;;;;;;;11.27;56.46;100619.91;5002976;28;20042;-69
2021/11/12 09:13:52;;;;;;;22.23;13.38;;;;;;;11.27;56.36;100623.41;5002550;28;20030;-72
2021/11/12 09:16:18;;;;;;;24.98;13.65;;;;;;;11.15;56.89;100613.97;5003225;28;20030;-72
2021/11/12 09:18:47;;;;;;;23.42;13.48;;;;;;;11.28;56.59;100606.53;5002654;28;20217;-69
2021/11/12 09:21:14;;;;;;;26.48;14.00;;;;;;;11.38;56.51;100609.13;5002506;28;20258;-73
2021/11/12 09:23:41;;;;;;;30.77;14.63;;;;;;;11.25;56.47;100601.50;5002791;28;20049;-73
2021/11/12 09:26:07;;;;;;;26.02;14.32;;;;;;;11.43;55.87;100588.31;5002897;28;20042;-68
2021/11/12 09:28:33;;;;;;;29.73;14.30;;;;;;;11.51;55.85;100601.72;5002552;28;20073;-73
2021/11/12 09:31:00;;;;;;;23.45;14.43;;;;;;;11.44;56.01;100595.28;5002614;28;20040;-73
2021/11/12 09:33:26;;;;;;;26.70;13.30;;;;;;;11.22;56.26;100585.06;5002506;28;20066;-72
2021/11/12 09:35:52;;;;;;;26.58;13.95;;;;;;;11.13;56.84;100595.56;5002214;28;20064;-68
2021/11/12 09:38:18;;;;;;;21.38;14.18;;;;;;;11.13;56.12;100595.56;5002359;28;20093;-68
2021/11/12 09:40:44;;;;;;;30.02;14.65;;;;;;;11.19;56.28;100588.84;5002654;28;20220;-73
2021/11/12 09:43:10;;;;;;;26.02;15.25;;;;;;;11.17;57.61;100578.38;5002768;28;20080;-70
2021/11/12 09:45:36;;;;;;;23.17;13.88;;;;;;;11.26;57.42;100571.38;5002288;28;20034;-72
2021/11/12 09:48:02;;;;;;;24.58;14.00;;;;;;;11.28;57.08;100569.41;5002141;28;20077;-73
2021/11/12 09:50:30;;;;;;;25.90;13.63;;;;;;;11.30;56.15;100563.94;5001977;28;20038;-68
2021/11/12 09:52:58;;;;;;;24.13;13.13;;;;;;;11.39;56.12;100568.38;5001859;28;20042;-68
2021/11/12 09:55:25;;;;;;;23.98;13.73;;;;;;;11.52;55.42;100564.44;5002290;28;20085;-73
2021/11/12 09:57:51;;;;;;;33.92;14.68;;;;;;;11.64;55.57;100565.06;5002637;28;20260;-70
2021/11/12 10:00:22;;;;;;;20.85;13.52;;;;;;;11.53;57.33;100557.31;5001845;28;20220;-69
2021/11/12 10:02:49;;;;;;;25.58;14.00;;;;;;;11.50;56.55;100547.81;5002182;28;20046;-69
2021/11/12 10:05:29;;;;;;;23.70;13.68;;;;;;;11.56;56.76;100542.91;5002348;28;20201;-73
2021/11/12 10:07:54;;;;;;;24.60;13.57;;;;;;;11.54;56.53;100537.75;5001602;28;20049;-68
2021/11/12 10:10:20;;;;;;;26.70;14.07;;;;;;;11.55;57.55;100547.38;5001797;28;20034;-71
2021/11/12 10:12:49;;;;;;;24.55;14.48;;;;;;;11.90;55.60;100543.13;5002100;28;20022;-66
2021/11/12 10:15:21;;;;;;;29.33;13.65;;;;;;;11.84;55.41;100536.59;5001599;28;20042;-72
2021/11/12 10:17:49;;;;;;;21.85;12.77;;;;;;;11.29;57.21;100530.47;5001818;28;20370;-71
2021/11/12 10:20:18;;;;;;;25.13;12.23;;;;;;;11.20;56.88;100526.88;5002031;28;20045;-70
2021/11/12 10:22:46;;;;;;;20.00;11.27;;;;;;;11.13;57.73;100515.19;5001442;28;20042;-67
2021/11/12 10:25:13;;;;;;;21.10;12.55;;;;;;;11.27;57.10;100516.53;5001655;28;20037;-72
2021/11/12 10:27:45;;;;;;;20.13;11.15;;;;;;;11.26;56.70;100518.34;5001802;28;20034;-68
2021/11/12 10:30:14;;;;;;;17.48;9.70;;;;;;;11.12;58.39;100514.38;5001535;28;20041;-66
2021/11/12 10:32:41;;;;;;;18.73;9.70;;;;;;;11.13;57.64;100507.25;5001686;28;20053;-70
2021/11/12 10:35:17;;;;;;;22.60;10.60;;;;;;;11.17;57.99;100503.31;5001725;28;20046;-71
2021/11/12 10:37:43;;;;;;;21.83;11.15;;;;;;;11.23;57.61;100502.72;5001303;28;20084;-66
2021/11/12 10:40:12;;;;;;;14.50;10.27;;;;;;;11.17;58.06;100500.66;5001500;28;20030;-71
2021/11/12 10:42:40;;;;;;;15.80;9.43;;;;;;;11.10;58.30;100491.63;5001661;28;20038;-66
2021/11/12 10:45:11;;;;;;;16.75;9.48;;;;;;;11.27;58.04;100492.66;5001178;28;20041;-66
2021/11/12 10:47:53;;;;;;;16.65;8.23;;;;;;;11.03;58.85;100493.22;5001456;28;20034;-66
2021/11/12 10:50:20;;;;;;;15.98;8.48;;;;;;;10.95;58.37;100486.00;5001640;28;20060;-72
2021/11/12 10:52:47;;;;;;;15.38;9.23;;;;;;;11.13;58.14;100484.22;5016249;28;20343;-68
2021/11/12 10:55:22;;;;;;;19.10;11.70;;;;;;;11.36;58.18;100482.00;5001602;28;20300;-72
2021/11/12 10:57:51;;;;;;;17.85;9.55;;;;;;;11.29;57.21;100475.63;5001677;28;20078;-70
2021/11/12 11:00:29;;;;;;;21.65;9.40;;;;;;;11.29;57.44;100472.13;5001428;28;20035;-68
2021/11/12 11:02:55;;;;;;;13.82;8.48;;;;;;;11.30;57.58;100474.66;5001654;28;20042;-70
2021/11/12 11:05:25;;;;;;;13.00;8.35;;;;;;;11.12;58.62;100460.53;5001615;28;20211;-68
2021/11/12 11:07:56;;;;;;;14.30;8.68;;;;;;;11.13;59.23;100468.31;5016223;28;20061;-72
2021/11/12 11:10:22;;;;;;;17.50;9.07;;;;;;;11.27;58.18;100474.09;5001362;28;20026;-72
2021/11/12 11:12:51;;;;;;;20.30;8.73;;;;;;;11.19;58.04;100465.09;5001484;28;20039;-72
2021/11/12 11:15:20;;;;;;;14.35;8.10;;;;;;;11.51;57.30;100464.63;5001296;28;20030;-70
2021/11/12 11:18:03;;;;;;;12.45;7.88;;;;;;;11.49;56.34;100461.28;5001313;28;20034;-70
2021/11/12 11:20:30;;;;;;;16.50;8.30;;;;;;;11.44;58.34;100455.59;5001497;28;20102;-73
2021/11/12 11:22:58;;;;;;;14.25;8.02;;;;;;;11.48;58.07;100456.97;5001979;28;20253;-67
2021/11/12 11:25:25;;;;;;;14.48;8.82;;;;;;;11.68;56.97;100456.81;5020120;28;20031;-69
2021/11/12 11:27:53;;;;;;;15.57;9.68;;;;;;;11.49;56.17;100455.16;5004991;28;20046;-69
2021/11/12 11:30:19;;;;;;;16.23;9.27;;;;;;;11.39;56.95;100449.88;5004430;28;20030;-69
2021/11/12 11:32:46;;;;;;;21.02;10.45;;;;;;;11.55;55.69;100453.72;5005182;28;20097;-69
2021/11/12 11:35:13;;;;;;;21.17;10.43;;;;;;;11.61;56.17;100455.75;5004682;28;20049;-71
2021/11/12 11:37:40;;;;;;;22.90;9.25;;;;;;;11.58;55.96;100451.59;5004242;28;20073;-67
2021/11/12 11:40:09;;;;;;;19.38;7.82;;;;;;;11.74;55.42;100454.41;5004531;28;20102;-70
2021/11/12 11:42:37;;;;;;;15.02;8.00;;;;;;;12.01;53.77;100448.19;5004596;28;20022;-68
2021/11/12 11:45:04;;;;;;;15.55;7.60;;;;;;;11.98;54.51;100447.66;5002752;28;20022;-72
2021/11/12 11:47:30;;;;;;;15.18;8.13;;;;;;;12.14;54.87;100445.97;5004431;28;20049;-73
2021/11/12 11:49:56;;;;;;;13.73;7.70;;;;;;;11.95;55.95;100437.34;5004316;28;20046;-67
2021/11/12 11:52:27;;;;;;;12.73;7.80;;;;;;;11.93;55.57;100437.50;5004103;28;20069;-66
2021/11/12 11:54:54;;;;;;;11.23;7.40;;;;;;;11.79;55.87;100440.72;5004308;28;20053;-68
2021/11/12 11:57:27;;;;;;;10.75;7.03;;;;;;;11.90;54.76;100427.19;5004463;28;20097;-66
2021/11/12 12:00:15;;;;;;;11.98;7.50;;;;;;;11.76;54.30;100433.03;5003700;28;20057;-66
2021/11/12 12:02:40;;;;;;;12.18;6.60;;;;;;;11.82;53.85;100411.22;5004314;28;20830;-70
2021/11/12 12:05:07;;;;;;;12.02;7.13;;;;;;;12.21;52.89;100418.78;5004142;28;20030;-73
2021/11/12 12:07:50;;;;;;;19.70;6.65;;;;;;;12.26;53.11;100429.78;5003462;28;20062;-70
2021/11/12 12:10:24;;;;;;;11.57;6.90;;;;;;;11.85;53.62;100424.16;5002684;28;20030;-73
2021/11/12 12:12:52;;;;;;;11.15;7.07;;;;;;;12.03;52.60;100424.13;5004160;28;20073;-73
2021/11/12 12:15:21;;;;;;;17.92;8.13;;;;;;;12.05;52.39;100427.47;5004095;28;20042;-71
2021/11/12 12:17:49;;;;;;;16.55;7.70;;;;;;;11.91;53.64;100420.06;5003898;28;20097;-70
2021/11/12 12:20:30;;;;;;;12.80;7.10;;;;;;;12.02;52.54;100423.31;5004023;28;20052;-67
2021/11/12 13:25:05;;;;;;;14.02;7.38;;;;;;;12.08;51.58;100422.69;4990719;28;20038;-67
2021/11/12 13:27:31;;;;;;;16.88;7.68;;;;;;;12.33;50.94;100415.72;4991061;28;20045;-67
2021/11/12 13:29:57;;;;;;;12.90;5.72;;;;;;;12.18;51.05;100413.78;4992900;28;20351;-67
2021/11/12 13:32:22;;;;;;;11.20;5.40;;;;;;;12.38;49.62;100410.75;4992758;28;20105;-71
2021/11/12 13:34:48;;;;;;;14.38;6.75;;;;;;;12.63;50.11;100418.91;4995320;28;20022;-68
2021/11/12 13:37:24;;;;;;;16.30;7.20;;;;;;;12.62;50.00;100420.72;4992358;28;20061;-69
2021/11/12 13:40:08;;;;;;;15.38;7.63;;;;;;;12.62;51.26;100420.72;4989514;28;20034;-73
2021/11/12 13:42:44;;;;;;;11.40;6.90;;;;;;;12.63;50.42;100421.56;4990776;28;20059;-73
2021/11/12 13:45:22;;;;;;;14.90;6.85;;;;;;;12.40;51.94;100414.09;4988550;28;20081;-67
2021/11/12 13:48:17;;;;;;;12.18;6.93;;;;;;;12.52;51.84;100420.00;4990879;28;20209;-71
2021/11/12 13:50:51;;;;;;;;;;;;;;;12.50;52.00;100421.16;4987871;28;20054;-74
2021/11/12 13:53:17;;;;;;;16.70;7.68;;;;;;;12.33;51.87;100429.00;4990709;28;20021;-70
2021/11/12 13:55:44;;;;;;;12.55;7.32;;;;;;;12.26;52.14;100419.97;4993048;28;20049;-67
2021/11/12 13:58:10;;;;;;;22.05;7.47;;;;;;;12.67;51.70;100423.72;4991394;28;20332;-69
2021/11/12 14:00:37;;;;;;;13.52;7.32;;;;;;;12.46;52.36;100424.09;4995196;28;20033;-70
2021/11/12 14:03:10;;;;;;;15.05;7.22;;;;;;;12.61;51.77;100419.06;4989542;28;20035;-69
2021/11/12 14:05:52;;;;;;;14.20;7.20;;;;;;;12.47;51.85;100417.78;4990556;28;20025;-72
2021/11/12 14:08:18;;;;;;;11.82;7.25;;;;;;;12.40;52.04;100414.09;4989338;28;20038;-67
2021/11/12 14:10:46;;;;;;;12.82;7.88;;;;;;;12.45;53.37;100421.59;4993818;28;20057;-69
2021/11/12 14:13:19;;;;;;;14.73;8.00;;;;;;;12.35;54.26;100424.34;4991502;28;20057;-73
2021/11/12 14:18:54;;;;;;;16.00;8.30;;;;;;;12.33;55.11;100429.00;4991414;28;20046;-69
2021/11/12 14:26:30;;;;;;;22.73;9.38;;;;;;;12.06;57.03;100410.56;4990185;28;20489;-69
2021/11/12 14:29:08;;;;;;;18.10;9.30;;;;;;;12.18;56.36;100419.94;4988596;28;20034;-68
2021/11/12 14:32:01;;;;;;;13.18;8.50;;;;;;;12.23;57.17;100422.13;4992543;28;20046;-67
2021/11/12 14:40:01;;;;;;;19.80;9.80;;;;;;;12.09;57.66;100424.34;4990033;28;20029;-69
2021/11/12 14:47:43;;;;;;;13.77;9.60;;;;;;;12.12;57.96;100428.53;4991160;28;20033;-73
2021/11/12 14:50:39;;;;;;;18.15;9.68;;;;;;;12.10;57.46;100433.16;4990480;28;20030;-72
2021/11/12 14:53:06;;;;;;;17.27;9.75;;;;;;;11.81;57.61;100398.94;4991271;28;20038;-69
2021/11/12 14:55:32;;;;;;;18.75;10.35;;;;;;;11.81;58.49;100438.72;4992626;28;20036;-69
2021/11/12 14:57:58;;;;;;;21.95;9.98;;;;;;;11.62;59.64;100421.13;4988497;28;20089;-73
2021/11/12 15:00:26;;;;;;;17.35;10.10;;;;;;;11.61;59.97;100437.19;4994971;28;20032;-70
2021/11/12 15:02:52;;;;;;;30.13;10.30;;;;;;;11.58;59.97;100434.84;4996400;28;20030;-73
2021/11/12 15:05:17;;;;;;;20.52;9.73;;;;;;;11.57;59.81;100436.66;4993619;28;20334;-69
2021/11/12 15:07:53;;;;;;;19.13;10.07;;;;;;;11.63;59.64;100427.25;4994689;28;20031;-69
2021/11/12 15:10:26;;;;;;;16.10;10.35;;;;;;;11.71;59.40;100440.59;4995144;28;20042;-70
2021/11/12 15:12:52;;;;;;;15.95;9.98;;;;;;;11.60;59.82;100435.53;4992896;28;20042;-71
2021/11/12 15:15:18;;;;;;;19.90;9.40;;;;;;;11.56;59.39;100436.81;5009234;28;20022;-70
2021/11/12 15:17:44;;;;;;;22.30;10.25;;;;;;;11.57;59.64;100441.97;4994576;28;20034;-69
2021/11/12 15:20:10;;;;;;;18.90;10.55;;;;;;;11.55;59.69;100440.44;4992914;28;20338;-73
2021/11/12 15:32:46;;;;;;;107.55;38.38;;;;;;;11.49;61.79;100461.28;4992927;28;20300;-73
2021/11/12 15:35:15;;;;;;;105.13;38.17;;;;;;;11.41;62.70;100461.19;4994339;28;20230;-69
2021/11/12 15:37:46;;;;;;;48.05;21.30;;;;;;;11.29;63.65;100456.25;4996264;28;20212;-72
2021/11/12 15:40:25;;;;;;;48.90;20.77;;;;;;;11.13;63.43;100446.28;4994478;28;20084;-73
2021/11/12 15:43:02;;;;;;;87.90;32.72;;;;;;;11.22;63.65;100461.31;4994896;28;20034;-69
2021/11/12 16:19:03;;;;;;;112.47;35.70;;;;;;;10.09;68.26;100481.72;4989651;28;20352;-67
2021/11/12 16:26:30;;;;;;;105.57;35.63;;;;;;;10.19;67.83;100493.13;4992405;28;20443;-70
2021/11/12 16:31:30;;;;;;;97.70;36.85;;;;;;;10.13;67.58;100501.63;4995050;28;20054;-67
2021/11/12 16:33:59;;;;;;;102.68;36.15;;;;;;;10.17;67.48;100495.06;4992604;28;20034;-70
2021/11/12 16:36:26;;;;;;;95.50;38.05;;;;;;;10.10;67.38;100493.97;4990623;28;20212;-73
2021/11/12 16:38:52;;;;;;;95.30;35.28;;;;;;;10.02;67.42;100499.97;4992472;28;20064;-70
2021/11/12 16:41:24;;;;;;;98.82;33.83;;;;;;;9.94;67.68;100502.47;4991696;28;20332;-70
2021/11/12 16:44:08;;;;;;;115.93;39.45;;;;;;;9.89;67.75;100504.69;4992944;28;20046;-70
2021/11/12 16:46:54;;;;;;;132.57;46.10;;;;;;;9.80;68.76;100501.06;4993237;28;20034;-66
2021/11/12 16:59:29;;;;;;;125.47;44.63;;;;;;;9.57;68.73;100505.78;4991730;28;20054;-68
2021/11/12 17:02:04;;;;;;;121.25;46.83;;;;;;;9.54;68.66;100510.50;4991797;28;20351;-70
2021/11/12 17:11:53;;;;;;;128.15;51.15;;;;;;;9.48;68.65;100500.47;4989527;28;20030;-67
2021/11/12 17:46:30;;;;;;;169.70;57.15;;;;;;;8.99;69.51;100501.28;4992122;28;20084;-66